sensor_id;sensor_type;location;lat;lon;timestamp;pressure;altitude;pressure_sealevel;temperature;humidity
21760;BME280;11041;50.854;20.580;2023-02-01T00:01:10;97788.72;;;0.92;100.00
21760;BME280;11041;50.854;20.580;2023-02-01T00:03:38;97792.22;;;0.93;100.00
21760;BME280;11041;50.854;20.580;2023-02-01T00:06:05;97773.00;;;0.99;100.00
21760;BME280;11041;50.854;20.580;2023-02-01T00:08:32;97798.09;;;1.20;99.87
21760;BME280;11041;50.854;20.580;2023-02-01T00:11:08;97799.44;;;1.23;99.58
21760;BME280;11041;50.854;20.580;2023-02-01T00:13:39;97794.53;;;1.25;99.59
21760;BME280;11041;50.854;20.580;2023-02-01T00:16:15;97798.84;;;1.26;99.93
21760;BME280;11041;50.854;20.580;2023-02-01T00:18:47;97790.75;;;1.26;99.50
21760;BME280;11041;50.854;20.580;2023-02-01T00:21:18;97780.16;;;1.30;99.23
21760;BME280;11041;50.854;20.580;2023-02-01T00:23:46;97777.75;;;1.28;99.58
21760;BME280;11041;50.854;20.580;2023-02-01T00:26:19;97781.81;;;1.25;99.44
21760;BME280;11041;50.854;20.580;2023-02-01T00:28:46;97783.09;;;1.38;99.21
21760;BME280;11041;50.854;20.580;2023-02-01T00:31:14;97752.59;;;1.27;98.62
21760;BME280;11041;50.854;20.580;2023-02-01T00:33:41;97745.28;;;1.28;99.16
21760;BME280;11041;50.854;20.580;2023-02-01T00:36:09;97743.59;;;1.32;98.84
21760;BME280;11041;50.854;20.580;2023-02-01T00:38:38;97768.19;;;1.41;98.60
21760;BME280;11041;50.854;20.580;2023-02-01T00:43:34;97755.44;;;1.46;98.57
21760;BME280;11041;50.854;20.580;2023-02-01T00:46:02;97741.41;;;1.39;98.83
21760;BME280;11041;50.854;20.580;2023-02-01T00:48:29;97739.75;;;1.43;98.70
21760;BME280;11041;50.854;20.580;2023-02-01T00:51:00;97753.56;;;1.47;98.61
21760;BME280;11041;50.854;20.580;2023-02-01T00:53:28;97741.13;;;1.41;98.49
21760;BME280;11041;50.854;20.580;2023-02-01T00:55:55;97759.19;;;1.51;98.27
21760;BME280;11041;50.854;20.580;2023-02-01T00:58:22;97737.69;;;1.25;98.70
21760;BME280;11041;50.854;20.580;2023-02-01T01:03:53;97769.63;;;1.28;99.26
21760;BME280;11041;50.854;20.580;2023-02-01T01:06:29;97783.47;;;1.21;99.26
21760;BME280;11041;50.854;20.580;2023-02-01T01:08:58;97769.19;;;1.05;99.30
21760;BME280;11041;50.854;20.580;2023-02-01T01:11:30;97803.81;;;0.98;99.10
21760;BME280;11041;50.854;20.580;2023-02-01T01:13:59;97809.03;;;0.79;98.79
21760;BME280;11041;50.854;20.580;2023-02-01T01:16:28;97814.19;;;0.76;98.55
21760;BME280;11041;50.854;20.580;2023-02-01T01:18:57;97819.34;;;0.62;98.49
21760;BME280;11041;50.854;20.580;2023-02-01T01:21:24;97808.84;;;0.45;99.23
21760;BME280;11041;50.854;20.580;2023-02-01T01:23:51;97832.63;;;0.53;99.94
21760;BME280;11041;50.854;20.580;2023-02-01T01:26:22;97788.31;;;0.34;99.97
21760;BME280;11041;50.854;20.580;2023-02-01T01:28:49;97792.66;;;0.30;99.69
21760;BME280;11041;50.854;20.580;2023-02-01T01:31:19;97804.25;;;0.40;99.42
21760;BME280;11041;50.854;20.580;2023-02-01T01:33:50;97788.84;;;0.26;98.84
21760;BME280;11041;50.854;20.580;2023-02-01T01:36:19;97789.94;;;0.30;99.17
21760;BME280;11041;50.854;20.580;2023-02-01T01:38:46;97806.16;;;0.30;99.02
21760;BME280;11041;50.854;20.580;2023-02-01T01:41:18;97806.69;;;0.32;98.89
21760;BME280;11041;50.854;20.580;2023-02-01T01:43:55;97808.84;;;0.30;99.08
21760;BME280;11041;50.854;20.580;2023-02-01T01:46:34;97791.03;;;0.13;99.10
21760;BME280;11041;50.854;20.580;2023-02-01T01:49:17;97809.69;;;0.20;99.54
21760;BME280;11041;50.854;20.580;2023-02-01T01:51:57;97805.88;;;0.16;99.59
21760;BME280;11041;50.854;20.580;2023-02-01T01:54:37;97821.81;;;0.33;99.54
21760;BME280;11041;50.854;20.580;2023-02-01T02:00:12;97821.28;;;0.20;99.49
21760;BME280;11041;50.854;20.580;2023-02-01T02:02:45;97824.28;;;0.29;99.80
21760;BME280;11041;50.854;20.580;2023-02-01T02:05:14;97847.78;;;0.39;99.56
21760;BME280;11041;50.854;20.580;2023-02-01T02:07:46;97854.22;;;0.43;98.87
21760;BME280;11041;50.854;20.580;2023-02-01T02:10:15;97830.22;;;0.36;98.80
21760;BME280;11041;50.854;20.580;2023-02-01T02:12:47;97847.50;;;0.51;98.57
21760;BME280;11041;50.854;20.580;2023-02-01T02:15:16;97846.94;;;0.54;98.56
21760;BME280;11041;50.854;20.580;2023-02-01T02:18:12;97856.41;;;0.51;98.97
21760;BME280;11041;50.854;20.580;2023-02-01T02:23:55;97843.44;;;0.48;98.99
21760;BME280;11041;50.854;20.580;2023-02-01T02:36:08;97859.09;;;0.51;98.75
21760;BME280;11041;50.854;20.580;2023-02-01T02:39:04;97839.66;;;0.49;98.60
21760;BME280;11041;50.854;20.580;2023-02-01T02:44:49;97880.19;;;0.54;98.32
21760;BME280;11041;50.854;20.580;2023-02-01T02:50:53;97859.63;;;0.43;97.98
21760;BME280;11041;50.854;20.580;2023-02-01T02:54:11;97887.19;;;0.55;98.20
21760;BME280;11041;50.854;20.580;2023-02-01T02:57:00;97888.28;;;0.49;98.60
21760;BME280;11041;50.854;20.580;2023-02-01T02:59:48;97861.00;;;0.30;98.28
21760;BME280;11041;50.854;20.580;2023-02-01T03:02:34;97871.53;;;0.37;98.73
21760;BME280;11041;50.854;20.580;2023-02-01T03:05:20;97873.97;;;0.49;98.81
21760;BME280;11041;50.854;20.580;2023-02-01T03:13:43;97883.97;;;0.63;98.51
21760;BME280;11041;50.854;20.580;2023-02-01T03:16:32;97861.53;;;0.58;98.46
21760;BME280;11041;50.854;20.580;2023-02-01T03:21:55;97885.56;;;0.70;98.12
21760;BME280;11041;50.854;20.580;2023-02-01T03:24:59;97883.97;;;0.69;98.06
21760;BME280;11041;50.854;20.580;2023-02-01T03:30:36;97883.44;;;0.61;97.65
21760;BME280;11041;50.854;20.580;2023-02-01T03:33:09;97890.47;;;0.68;97.90
21760;BME280;11041;50.854;20.580;2023-02-01T03:38:50;97896.91;;;0.77;97.86
21760;BME280;11041;50.854;20.580;2023-02-01T03:41:45;97907.47;;;0.78;97.39
21760;BME280;11041;50.854;20.580;2023-02-01T03:44:41;97883.41;;;0.67;97.09
21760;BME280;11041;50.854;20.580;2023-02-01T03:47:33;97902.59;;;0.80;97.08
21760;BME280;11041;50.854;20.580;2023-02-01T03:50:09;97900.97;;;0.79;97.32
21760;BME280;11041;50.854;20.580;2023-02-01T03:52:52;97902.06;;;0.78;96.67
21760;BME280;11041;50.854;20.580;2023-02-01T03:55:23;97905.56;;;0.84;97.00
21760;BME280;11041;50.854;20.580;2023-02-01T04:00:28;97885.03;;;0.73;96.84
21760;BME280;11041;50.854;20.580;2023-02-01T04:02:55;97911.81;;;0.84;96.33
21760;BME280;11041;50.854;20.580;2023-02-01T04:05:22;97924.78;;;0.88;96.45
21760;BME280;11041;50.854;20.580;2023-02-01T04:07:49;97880.97;;;0.75;95.65
21760;BME280;11041;50.854;20.580;2023-02-01T04:10:16;97901.53;;;0.92;95.85
21760;BME280;11041;50.854;20.580;2023-02-01T04:12:43;97905.03;;;0.87;95.93
21760;BME280;11041;50.854;20.580;2023-02-01T04:15:10;97899.63;;;0.82;95.69
21760;BME280;11041;50.854;20.580;2023-02-01T04:17:37;97928.03;;;0.90;95.71
21760;BME280;11041;50.854;20.580;2023-02-01T04:20:04;97924.22;;;0.96;95.51
21760;BME280;11041;50.854;20.580;2023-02-01T04:22:31;97910.97;;;0.79;95.17
21760;BME280;11041;50.854;20.580;2023-02-01T04:24:58;97891.50;;;0.77;95.28
21760;BME280;11041;50.854;20.580;2023-02-01T04:27:24;97943.44;;;0.94;94.87
21760;BME280;11041;50.854;20.580;2023-02-01T04:29:51;97898.03;;;0.71;95.03
21760;BME280;11041;50.854;20.580;2023-02-01T04:32:19;97927.22;;;0.94;94.44
21760;BME280;11041;50.854;20.580;2023-02-01T04:34:48;97924.22;;;0.91;94.26
21760;BME280;11041;50.854;20.580;2023-02-01T04:37:15;97910.72;;;0.75;94.58
21760;BME280;11041;50.854;20.580;2023-02-01T04:39:42;97932.09;;;0.87;94.80
21760;BME280;11041;50.854;20.580;2023-02-01T04:42:08;97907.47;;;0.83;93.82
21760;BME280;11041;50.854;20.580;2023-02-01T04:44:34;97927.75;;;0.96;93.88
21760;BME280;11041;50.854;20.580;2023-02-01T04:47:03;97955.88;;;0.95;94.39
21760;BME280;11041;50.854;20.580;2023-02-01T04:49:30;97930.44;;;0.86;93.77
21760;BME280;11041;50.854;20.580;2023-02-01T04:51:57;97951.53;;;1.04;93.59
21760;BME280;11041;50.854;20.580;2023-02-01T04:54:23;97932.34;;;0.91;93.91
21760;BME280;11041;50.854;20.580;2023-02-01T04:56:50;97945.56;;;1.02;94.07
21760;BME280;11041;50.854;20.580;2023-02-01T04:59:16;97930.97;;;0.93;93.96
21760;BME280;11041;50.854;20.580;2023-02-01T05:01:43;97954.25;;;1.04;94.14
21760;BME280;11041;50.854;20.580;2023-02-01T05:04:11;97965.06;;;1.10;94.08
21760;BME280;11041;50.854;20.580;2023-02-01T05:06:38;97961.53;;;1.09;94.05
21760;BME280;11041;50.854;20.580;2023-02-01T05:09:05;97957.22;;;1.03;93.38
21760;BME280;11041;50.854;20.580;2023-02-01T05:11:31;97940.19;;;0.97;93.15
21760;BME280;11041;50.854;20.580;2023-02-01T05:14:16;97923.13;;;0.87;93.55
21760;BME280;11041;50.854;20.580;2023-02-01T05:16:43;97930.44;;;0.91;93.69
21760;BME280;11041;50.854;20.580;2023-02-01T05:19:09;97935.84;;;0.91;93.57
21760;BME280;11041;50.854;20.580;2023-02-01T05:21:36;97962.34;;;1.04;93.83
21760;BME280;11041;50.854;20.580;2023-02-01T05:24:03;97957.22;;;1.03;94.01
21760;BME280;11041;50.854;20.580;2023-02-01T05:26:37;97940.72;;;0.94;93.90
21760;BME280;11041;50.854;20.580;2023-02-01T05:29:06;97970.19;;;1.11;94.02
21760;BME280;11041;50.854;20.580;2023-02-01T05:31:33;97949.63;;;1.05;93.78
21760;BME280;11041;50.854;20.580;2023-02-01T05:34:00;97951.81;;;0.98;94.45
21760;BME280;11041;50.854;20.580;2023-02-01T05:36:27;97949.66;;;1.00;93.73
21760;BME280;11041;50.854;20.580;2023-02-01T05:38:53;97960.44;;;1.10;93.90
21760;BME280;11041;50.854;20.580;2023-02-01T05:41:20;97953.97;;;1.01;94.09
21760;BME280;11041;50.854;20.580;2023-02-01T05:43:47;97953.16;;;0.95;94.14
21760;BME280;11041;50.854;20.580;2023-02-01T05:46:14;97939.63;;;0.95;94.29
21760;BME280;11041;50.854;20.580;2023-02-01T05:48:42;97968.56;;;1.05;94.61
21760;BME280;11041;50.854;20.580;2023-02-01T05:51:10;97963.16;;;1.10;94.19
21760;BME280;11041;50.854;20.580;2023-02-01T05:53:37;97943.16;;;0.96;94.28
21760;BME280;11041;50.854;20.580;2023-02-01T05:56:04;97937.19;;;0.89;94.50
21760;BME280;11041;50.854;20.580;2023-02-01T05:58:31;97961.28;;;1.00;94.79
21760;BME280;11041;50.854;20.580;2023-02-01T06:01:03;97966.16;;;1.03;94.62
21760;BME280;11041;50.854;20.580;2023-02-01T06:03:30;97944.25;;;0.90;94.68
21760;BME280;11041;50.854;20.580;2023-02-01T06:05:56;97958.28;;;1.07;94.58
21760;BME280;11041;50.854;20.580;2023-02-01T06:08:23;97957.50;;;1.06;94.26
21760;BME280;11041;50.854;20.580;2023-02-01T06:11:04;97936.41;;;0.88;94.63
21760;BME280;11041;50.854;20.580;2023-02-01T06:13:32;97955.34;;;1.03;94.45
21760;BME280;11041;50.854;20.580;2023-02-01T06:15:59;97928.00;;;0.95;94.14
21760;BME280;11041;50.854;20.580;2023-02-01T06:18:25;97934.50;;;0.99;93.94
21760;BME280;11041;50.854;20.580;2023-02-01T06:20:57;97945.84;;;1.16;93.38
21760;BME280;11041;50.854;20.580;2023-02-01T06:23:29;97948.78;;;1.20;93.25
21760;BME280;11041;50.854;20.580;2023-02-01T06:26:03;97938.78;;;1.15;93.26
21760;BME280;11041;50.854;20.580;2023-02-01T06:28:32;97943.94;;;1.12;92.76
21760;BME280;11041;50.854;20.580;2023-02-01T06:31:04;97948.25;;;1.13;93.55
21760;BME280;11041;50.854;20.580;2023-02-01T06:33:33;97949.09;;;1.13;93.79
21760;BME280;11041;50.854;20.580;2023-02-01T06:36:03;97945.56;;;1.13;93.84
21760;BME280;11041;50.854;20.580;2023-02-01T06:38:31;97928.81;;;1.00;93.65
21760;BME280;11041;50.854;20.580;2023-02-01T06:41:02;97949.59;;;1.15;93.11
21760;BME280;11041;50.854;20.580;2023-02-01T06:43:30;97926.66;;;1.02;93.54
21760;BME280;11041;50.854;20.580;2023-02-01T06:46:07;97946.13;;;1.10;93.84
21760;BME280;11041;50.854;20.580;2023-02-01T06:48:34;97947.22;;;1.09;93.28
21760;BME280;11041;50.854;20.580;2023-02-01T06:51:02;97946.66;;;1.12;93.49
21760;BME280;11041;50.854;20.580;2023-02-01T06:53:29;97937.44;;;1.13;93.27
21760;BME280;11041;50.854;20.580;2023-02-01T06:56:00;97958.56;;;1.21;93.09
21760;BME280;11041;50.854;20.580;2023-02-01T06:58:32;97938.00;;;1.04;92.81
21760;BME280;11041;50.854;20.580;2023-02-01T07:01:07;97951.25;;;1.11;93.31
21760;BME280;11041;50.854;20.580;2023-02-01T07:03:35;97951.50;;;1.15;93.43
21760;BME280;11041;50.854;20.580;2023-02-01T07:06:04;97933.41;;;1.05;93.44
21760;BME280;11041;50.854;20.580;2023-02-01T07:08:34;97943.13;;;1.16;93.32
21760;BME280;11041;50.854;20.580;2023-02-01T07:11:10;97938.53;;;1.17;93.30
21760;BME280;11041;50.854;20.580;2023-02-01T07:13:39;97950.44;;;1.21;93.39
21760;BME280;11041;50.854;20.580;2023-02-01T07:16:15;97929.06;;;1.14;93.34
21760;BME280;11041;50.854;20.580;2023-02-01T07:18:44;97943.38;;;1.30;92.80
21760;BME280;11041;50.854;20.580;2023-02-01T07:21:13;97953.66;;;1.28;93.03
21760;BME280;11041;50.854;20.580;2023-02-01T07:23:40;97936.59;;;1.22;93.33
21760;BME280;11041;50.854;20.580;2023-02-01T07:26:12;97942.00;;;1.33;93.27
21760;BME280;11041;50.854;20.580;2023-02-01T07:28:40;97925.78;;;1.22;93.13
21760;BME280;11041;50.854;20.580;2023-02-01T07:31:12;97951.47;;;1.35;93.03
21760;BME280;11041;50.854;20.580;2023-02-01T07:33:42;97939.31;;;1.33;92.80
21760;BME280;11041;50.854;20.580;2023-02-01T07:36:16;97955.25;;;1.34;92.71
21760;BME280;11041;50.854;20.580;2023-02-01T07:38:45;97930.94;;;1.19;93.17
21760;BME280;11041;50.854;20.580;2023-02-01T07:41:17;97946.06;;;1.25;92.92
21760;BME280;11041;50.854;20.580;2023-02-01T07:43:46;97936.63;;;1.17;92.97
21760;BME280;11041;50.854;20.580;2023-02-01T07:46:14;97926.34;;;1.14;92.98
21760;BME280;11041;50.854;20.580;2023-02-01T07:48:43;97918.50;;;1.13;92.96
21760;BME280;11041;50.854;20.580;2023-02-01T07:51:15;97949.31;;;1.27;93.14
21760;BME280;11041;50.854;20.580;2023-02-01T07:53:44;97929.84;;;1.25;93.13
21760;BME280;11041;50.854;20.580;2023-02-01T07:56:17;97930.41;;;1.17;93.30
21760;BME280;11041;50.854;20.580;2023-02-01T07:58:50;97938.78;;;1.31;93.06
21760;BME280;11041;50.854;20.580;2023-02-01T08:01:22;97921.19;;;1.18;92.72
21760;BME280;11041;50.854;20.580;2023-02-01T08:03:57;97926.31;;;1.24;92.11
21760;BME280;11041;50.854;20.580;2023-02-01T08:06:31;97949.00;;;1.44;91.82
21760;BME280;11041;50.854;20.580;2023-02-01T08:09:00;97947.66;;;1.41;92.16
21760;BME280;11041;50.854;20.580;2023-02-01T08:11:33;97950.63;;;1.45;92.64
21760;BME280;11041;50.854;20.580;2023-02-01T08:14:00;97946.03;;;1.40;92.25
21760;BME280;11041;50.854;20.580;2023-02-01T08:16:28;97937.94;;;1.35;91.97
21760;BME280;11041;50.854;20.580;2023-02-01T08:18:57;97950.06;;;1.53;91.98
21760;BME280;11041;50.854;20.580;2023-02-01T08:21:29;97938.44;;;1.47;91.58
21760;BME280;11041;50.854;20.580;2023-02-01T08:24:06;97941.41;;;1.46;91.95
21760;BME280;11041;50.854;20.580;2023-02-01T08:26:35;97940.88;;;1.44;92.35
21760;BME280;11041;50.854;20.580;2023-02-01T08:29:11;97930.59;;;1.46;92.29
21760;BME280;11041;50.854;20.580;2023-02-01T08:31:40;97947.38;;;1.48;91.91
21760;BME280;11041;50.854;20.580;2023-02-01T08:34:10;97958.69;;;1.65;91.75
21760;BME280;11041;50.854;20.580;2023-02-01T08:36:46;97930.56;;;1.51;91.29
21760;BME280;11041;50.854;20.580;2023-02-01T08:39:14;97934.09;;;1.57;91.47
21760;BME280;11041;50.854;20.580;2023-02-01T08:41:44;97942.97;;;1.67;90.98
21760;BME280;11041;50.854;20.580;2023-02-01T08:44:31;97941.59;;;1.70;90.76
21760;BME280;11041;50.854;20.580;2023-02-01T08:47:08;97946.47;;;1.73;90.68
21760;BME280;11041;50.854;20.580;2023-02-01T08:49:36;97943.75;;;1.78;90.10
21760;BME280;11041;50.854;20.580;2023-02-01T08:52:18;97943.75;;;1.78;90.18
21760;BME280;11041;50.854;20.580;2023-02-01T08:55:04;97928.06;;;1.70;90.29
21760;BME280;11041;50.854;20.580;2023-02-01T08:57:35;97940.22;;;1.78;89.50
21760;BME280;11041;50.854;20.580;2023-02-01T09:00:12;97942.13;;;1.77;89.91
21760;BME280;11041;50.854;20.580;2023-02-01T09:02:47;97933.19;;;1.77;90.11
21760;BME280;11041;50.854;20.580;2023-02-01T09:05:21;97935.91;;;1.72;90.22
21760;BME280;11041;50.854;20.580;2023-02-01T09:07:53;97920.22;;;1.68;89.97
21760;BME280;11041;50.854;20.580;2023-02-01T09:10:32;97948.06;;;1.79;90.04
21760;BME280;11041;50.854;20.580;2023-02-01T09:13:01;97902.38;;;1.62;88.91
21760;BME280;11041;50.854;20.580;2023-02-01T09:15:34;97931.56;;;1.81;89.20
21760;BME280;11041;50.854;20.580;2023-02-01T09:18:11;97940.50;;;1.76;88.82
21760;BME280;11041;50.854;20.580;2023-02-01T09:20:39;97912.63;;;1.65;89.03
21760;BME280;11041;50.854;20.580;2023-02-01T09:23:24;97915.31;;;1.70;88.74
21760;BME280;11041;50.854;20.580;2023-02-01T09:25:58;97922.63;;;1.75;88.24
21760;BME280;11041;50.854;20.580;2023-02-01T09:28:25;97902.63;;;1.71;88.84
21760;BME280;11041;50.854;20.580;2023-02-01T09:31:03;97906.38;;;1.75;89.21
21760;BME280;11041;50.854;20.580;2023-02-01T09:33:35;97915.50;;;1.89;87.85
21760;BME280;11041;50.854;20.580;2023-02-01T09:36:08;97928.22;;;1.94;87.47
21760;BME280;11041;50.854;20.580;2023-02-01T09:38:37;97919.03;;;1.95;88.30
21760;BME280;11041;50.854;20.580;2023-02-01T09:48:08;97910.97;;;2.24;87.75
21760;BME280;11041;50.854;20.580;2023-02-01T09:50:49;97891.53;;;2.12;87.49
21760;BME280;11041;50.854;20.580;2023-02-01T09:53:52;97883.34;;;2.22;88.03
21760;BME280;11041;50.854;20.580;2023-02-01T09:56:47;97899.47;;;2.38;87.68
21760;BME280;11041;50.854;20.580;2023-02-01T09:59:47;97906.25;;;2.40;87.60
21760;BME280;11041;50.854;20.580;2023-02-01T10:02:37;97891.69;;;2.26;87.79
21760;BME280;11041;50.854;20.580;2023-02-01T10:05:22;97893.56;;;2.30;87.56
21760;BME280;11041;50.854;20.580;2023-02-01T10:12:00;97909.25;;;2.39;88.39
21760;BME280;11041;50.854;20.580;2023-02-01T10:15:22;97863.56;;;2.22;88.10
21760;BME280;11041;50.854;20.580;2023-02-01T10:24:40;97895.81;;;2.18;89.57
21760;BME280;11041;50.854;20.580;2023-02-01T10:27:29;97904.03;;;2.08;90.32
21760;BME280;11041;50.854;20.580;2023-02-01T10:30:25;97899.50;;;1.98;92.01
21760;BME280;11041;50.854;20.580;2023-02-01T10:33:00;97877.94;;;1.73;91.95
21760;BME280;11041;50.854;20.580;2023-02-01T10:35:37;97901.50;;;1.72;93.14
21760;BME280;11041;50.854;20.580;2023-02-01T10:38:26;97899.09;;;1.65;93.79
21760;BME280;11041;50.854;20.580;2023-02-01T10:41:16;97886.94;;;1.63;93.81
21760;BME280;11041;50.854;20.580;2023-02-01T10:43:55;97868.28;;;1.51;94.51
21760;BME280;11041;50.854;20.580;2023-02-01T10:46:24;97861.00;;;1.46;94.97
21760;BME280;11041;50.854;20.580;2023-02-01T10:48:56;97873.13;;;1.64;95.26
21760;BME280;11041;50.854;20.580;2023-02-01T10:51:57;97881.72;;;1.77;95.12
21760;BME280;11041;50.854;20.580;2023-02-01T10:54:38;97884.09;;;1.88;95.19
21760;BME280;11041;50.854;20.580;2023-02-01T10:57:25;97864.63;;;1.81;94.62
21760;BME280;11041;50.854;20.580;2023-02-01T10:59:55;97860.00;;;1.87;93.04
21760;BME280;11041;50.854;20.580;2023-02-01T11:02:35;97866.22;;;1.87;93.21
21760;BME280;11041;50.854;20.580;2023-02-01T11:05:10;97854.56;;;1.87;93.63
21760;BME280;11041;50.854;20.580;2023-02-01T11:07:46;97868.22;;;2.11;92.47
21760;BME280;11041;50.854;20.580;2023-02-01T11:10:42;97871.44;;;2.18;93.01
21760;BME280;11041;50.854;20.580;2023-02-01T11:13:17;97864.63;;;2.21;91.46
21760;BME280;11041;50.854;20.580;2023-02-01T11:15:55;97837.84;;;2.19;90.68
21760;BME280;11041;50.854;20.580;2023-02-01T11:18:35;97866.41;;;2.41;90.38
21760;BME280;11041;50.854;20.580;2023-02-01T11:21:04;97834.47;;;2.32;90.44
21760;BME280;11041;50.854;20.580;2023-02-01T11:23:33;97851.06;;;2.60;89.35
21760;BME280;11041;50.854;20.580;2023-02-01T11:28:52;97834.88;;;2.74;88.36
21760;BME280;11041;50.854;20.580;2023-02-01T11:31:20;97838.84;;;2.87;87.17
21760;BME280;11041;50.854;20.580;2023-02-01T11:33:53;97813.38;;;2.83;87.47
21760;BME280;11041;50.854;20.580;2023-02-01T11:36:33;97817.78;;;3.03;87.21
21760;BME280;11041;50.854;20.580;2023-02-01T11:39:24;97825.75;;;3.18;86.19
21760;BME280;11041;50.854;20.580;2023-02-01T11:42:13;97797.09;;;3.07;85.01
21760;BME280;11041;50.854;20.580;2023-02-01T11:44:46;97809.88;;;3.06;85.79
21760;BME280;11041;50.854;20.580;2023-02-01T11:47:39;97803.06;;;3.09;85.42
21760;BME280;11041;50.854;20.580;2023-02-01T11:50:37;97820.00;;;3.19;84.58
21760;BME280;11041;50.854;20.580;2023-02-01T11:53:34;97809.00;;;3.11;84.51
21760;BME280;11041;50.854;20.580;2023-02-01T11:56:33;97822.53;;;3.16;84.87
21760;BME280;11041;50.854;20.580;2023-02-01T11:59:49;97803.50;;;3.16;84.28
21760;BME280;11041;50.854;20.580;2023-02-01T12:08:28;97785.50;;;3.25;82.15
21760;BME280;11041;50.854;20.580;2023-02-01T12:11:21;97793.38;;;3.22;82.54
21760;BME280;11041;50.854;20.580;2023-02-01T12:23:42;97788.94;;;3.31;81.93
21760;BME280;11041;50.854;20.580;2023-02-01T12:26:52;97775.28;;;3.36;80.82
21760;BME280;11041;50.854;20.580;2023-02-01T12:29:34;97795.94;;;3.37;80.11
21760;BME280;11041;50.854;20.580;2023-02-01T12:32:11;97798.06;;;3.40;80.25
21760;BME280;11041;50.854;20.580;2023-02-01T12:38:07;97796.13;;;3.40;80.40
21760;BME280;11041;50.854;20.580;2023-02-01T12:43:52;97778.22;;;3.20;79.91
21760;BME280;11041;50.854;20.580;2023-02-01T12:46:35;97766.56;;;3.20;80.48
21760;BME280;11041;50.854;20.580;2023-02-01T12:52:32;97779.63;;;3.37;80.26
21760;BME280;11041;50.854;20.580;2023-02-01T12:57:49;97752.03;;;3.30;78.82
21760;BME280;11041;50.854;20.580;2023-02-01T13:00:34;97751.97;;;3.35;78.78
21760;BME280;11041;50.854;20.580;2023-02-01T13:06:18;97761.56;;;3.46;79.40
21760;BME280;11041;50.854;20.580;2023-02-01T13:09:23;97754.59;;;3.40;78.39
21760;BME280;11041;50.854;20.580;2023-02-01T13:11:59;97782.81;;;3.44;79.05
21760;BME280;11041;50.854;20.580;2023-02-01T13:14:42;97789.19;;;3.34;81.85
21760;BME280;11041;50.854;20.580;2023-02-01T13:17:21;97806.69;;;3.23;84.62
21760;BME280;11041;50.854;20.580;2023-02-01T13:20:23;97786.06;;;2.98;86.23
21760;BME280;11041;50.854;20.580;2023-02-01T13:25:39;97801.81;;;2.48;89.71
21760;BME280;11041;50.854;20.580;2023-02-01T13:34:05;97793.13;;;2.17;92.89
21760;BME280;11041;50.854;20.580;2023-02-01T13:39:48;97793.94;;;2.17;92.84
21760;BME280;11041;50.854;20.580;2023-02-01T13:42:22;97793.13;;;2.17;93.01
21760;BME280;11041;50.854;20.580;2023-02-01T13:45:03;97784.75;;;2.13;94.11
21760;BME280;11041;50.854;20.580;2023-02-01T13:47:48;97797.13;;;2.24;93.28
21760;BME280;11041;50.854;20.580;2023-02-01T13:50:31;97808.25;;;2.23;93.28
21760;BME280;11041;50.854;20.580;2023-02-01T13:53:33;97800.69;;;2.20;92.99
21760;BME280;11041;50.854;20.580;2023-02-01T13:56:11;97788.00;;;2.15;93.32
21760;BME280;11041;50.854;20.580;2023-02-01T13:58:42;97784.59;;;2.33;92.74
21760;BME280;11041;50.854;20.580;2023-02-01T14:04:02;97786.28;;;2.24;92.38
21760;BME280;11041;50.854;20.580;2023-02-01T14:11:52;97761.94;;;2.19;92.19
21760;BME280;11041;50.854;20.580;2023-02-01T14:19:31;97775.28;;;2.40;91.90
21760;BME280;11041;50.854;20.580;2023-02-01T14:24:54;97770.59;;;2.50;90.42
21760;BME280;11041;50.854;20.580;2023-02-01T14:27:28;97758.69;;;2.46;90.37
21760;BME280;11041;50.854;20.580;2023-02-01T14:30:01;97757.06;;;2.45;89.82
21760;BME280;11041;50.854;20.580;2023-02-01T14:32:37;97748.94;;;2.45;90.10
21760;BME280;11041;50.854;20.580;2023-02-01T14:35:27;97762.75;;;2.49;89.95
21760;BME280;11041;50.854;20.580;2023-02-01T14:38:00;97765.66;;;2.52;88.92
21760;BME280;11041;50.854;20.580;2023-02-01T14:40:34;97747.66;;;2.38;89.35
21760;BME280;11041;50.854;20.580;2023-02-01T14:43:02;97752.16;;;2.47;88.99
21760;BME280;11041;50.854;20.580;2023-02-01T14:50:47;97742.97;;;2.19;89.34
21760;BME280;11041;50.854;20.580;2023-02-01T14:53:20;97749.78;;;2.17;89.70
21760;BME280;11041;50.854;20.580;2023-02-01T14:56:07;97756.16;;;2.26;89.91
21760;BME280;11041;50.854;20.580;2023-02-01T14:59:07;97767.84;;;2.26;89.26
21760;BME280;11041;50.854;20.580;2023-02-01T15:01:38;97765.16;;;2.21;89.80
21760;BME280;11041;50.854;20.580;2023-02-01T15:04:16;97773.81;;;2.23;90.48
21760;BME280;11041;50.854;20.580;2023-02-01T15:06:52;97774.88;;;2.27;91.09
21760;BME280;11041;50.854;20.580;2023-02-01T15:09:30;97771.09;;;2.23;91.58
21760;BME280;11041;50.854;20.580;2023-02-01T15:14:47;97764.19;;;2.12;93.52
21760;BME280;11041;50.854;20.580;2023-02-01T15:17:29;97769.38;;;2.03;93.38
21760;BME280;11041;50.854;20.580;2023-02-01T15:20:14;97775.06;;;2.02;93.50
21760;BME280;11041;50.854;20.580;2023-02-01T15:22:42;97776.19;;;2.01;94.20
21760;BME280;11041;50.854;20.580;2023-02-01T15:25:22;97774.09;;;1.92;94.11
21760;BME280;11041;50.854;20.580;2023-02-01T15:27:49;97767.09;;;1.86;94.40
21760;BME280;11041;50.854;20.580;2023-02-01T15:30:30;97771.44;;;1.82;94.96
21760;BME280;11041;50.854;20.580;2023-02-01T15:33:17;97780.63;;;1.86;95.00
21760;BME280;11041;50.854;20.580;2023-02-01T15:35:49;97759.09;;;1.71;95.63
21760;BME280;11041;50.854;20.580;2023-02-01T15:41:16;97756.16;;;1.62;96.22
21760;BME280;11041;50.854;20.580;2023-02-01T15:44:20;97781.00;;;1.69;96.31
21760;BME280;11041;50.854;20.580;2023-02-01T15:46:50;97788.13;;;1.60;96.35
21760;BME280;11041;50.854;20.580;2023-02-01T15:49:19;97792.94;;;1.68;96.49
21760;BME280;11041;50.854;20.580;2023-02-01T15:51:48;97761.91;;;1.51;96.30
21760;BME280;11041;50.854;20.580;2023-02-01T15:54:24;97781.34;;;1.58;96.73
21760;BME280;11041;50.854;20.580;2023-02-01T15:56:58;97773.84;;;1.49;96.97